Kenosha, WI

12:24 AM CST on February 23, 2018 (GMT -0600)
Wilson Heights | | Change Station
Active Advisory: Flood Warning

Elev 645 ft 42.59 °N, 87.85 °W | Updated 12 seconds ago

Overcast
Overcast
36.1 °F
Feels Like 32 °F
N
5.0
Wind Variable Wind from SSW
Gusts 5.0 mph

Today
High -- | Low -- °F
--% Chance of Precip.
Yesterday
High -- | Low -- °F
Precip. -- in
Pressure 30.29 in
Visibility 6.0 miles
Clouds Overcast 900 ft
Windchill 32 °F
Dew Point 34 °F
Humidity 92%
Rainfall 0.00 in
Snow Depth Not available.
6:36 AM 5:33 PM
Waxing Crescent, 49% visible
SPECI KENW 230602Z AUTO 14010KT 6SM BR OVC009 03/01 A3029 RMK AO2 T00280006
Pressure 30.29 in
Visibility 6.0 miles
Clouds Overcast 900 ft
Windchill 32 °F
Dew Point 34 °F
Humidity 92%
Rainfall 0.00 in
Snow Depth Not available.
6:36 AM 5:33 PM
Waxing Crescent, 49% visible
SPECI KENW 230602Z AUTO 14010KT 6SM BR OVC009 03/01 A3029 RMK AO2 T00280006

Get Your Daily Forecast Email!

Thanks for signing up!

Be on the lookout for a verification email in your inbox.

You'll start receiving severe weather alerts in your inbox..

×

10-Day Weather Forecast

Almanac

Astronomy

Feb. 23, 2018 Rise Set
Actual Time
Civil Twilight
Nautical Twilight
Astronomical Twilight
Moon
Length of Visible Light
Length of Day
Tomorrow will be .
, % of the Moon is Illuminated

Today's Extremes

State Highs State Lows

Community

WunderPhotos

Category 6

Welcome to Category 6. This is the collective home for Weather Underground's featured writeups by Dr. Jeff Masters (right), Bob Henson (left), Chris Burt, and other regular contributors.

Nearby

Air Quality

  Air Quality AQ Index Pollutant
Not available.

Snow Depth

Station Depth Elevation

Earthquake Activity

City Distance Mag. Time & Date
Minimum magnitude displayed is 2.5.

Coastal Water Temperatures

Place Temperature

Stations

Nearby Weather Stations

Station Location Temp. Windchill Dew Point Humidity Wind Precip. Elev Updated Type
                   

Watches & Warnings

Flood Warning
Issued: 8:25 PM CST Feb. 22, 2018 – National Weather Service

The Flood Warning continues for
the Fox River near New Munster.
* At 8:00 PM Thursday the stage was 12.9 feet.
* Flood stage is 11.0 feet.
* Minor flooding is occurring and minor flooding is forecast.
* Forecast... the river will continue to fall to below flood stage by
early Tuesday morning.
* Impact... at 12.2 feet... water is up to the first floor levels of
some homes in the town of Wheatland and Village of Salem lakes area
along Riverside Drive and Shorewood drive.


Lat... Lon 4262 8832 4262 8814 4252 8813 4245 8811
      4245 8827 4255 8825